createdAt,value
2022-08-04T00:00:33.154Z,25.2
2022-08-04T00:03:33.165Z,25.2
2022-08-04T00:06:33.159Z,25.2
2022-08-04T00:09:33.166Z,25.2
2022-08-04T00:12:36.547Z,25.1
2022-08-04T00:15:33.156Z,25.1
2022-08-04T00:18:33.162Z,25.1
2022-08-04T00:21:33.159Z,25.1
2022-08-04T00:24:33.169Z,25.1
2022-08-04T00:27:33.161Z,25.1
2022-08-04T00:30:33.164Z,25.1
2022-08-04T00:33:33.170Z,25.1
2022-08-04T00:36:33.176Z,25
2022-08-04T00:39:33.208Z,25
2022-08-04T00:42:33.175Z,25
2022-08-04T00:45:35.691Z,25
2022-08-04T00:48:33.171Z,24.9
2022-08-04T00:51:33.171Z,24.9
2022-08-04T00:54:33.167Z,24.9
2022-08-04T00:57:33.779Z,24.9
2022-08-04T01:00:33.168Z,24.9
2022-08-04T01:03:33.170Z,24.8
2022-08-04T01:06:33.166Z,24.8
2022-08-04T01:09:33.166Z,24.8
2022-08-04T01:12:33.170Z,24.8
2022-08-04T01:15:33.188Z,24.8
2022-08-04T01:18:33.168Z,24.8
2022-08-04T01:21:33.177Z,24.8
2022-08-04T01:24:33.175Z,24.7
2022-08-04T01:27:33.175Z,24.7
2022-08-04T01:30:33.170Z,24.7
2022-08-04T01:33:33.174Z,24.7
2022-08-04T01:36:33.249Z,24.7
2022-08-04T01:39:33.226Z,24.7
2022-08-04T01:42:33.180Z,24.6
2022-08-04T01:45:33.188Z,24.6
2022-08-04T01:48:33.181Z,24.6
2022-08-04T01:51:33.177Z,24.6
2022-08-04T01:54:33.185Z,24.6
2022-08-04T01:57:37.453Z,24.6
2022-08-04T02:00:33.195Z,24.6
2022-08-04T02:04:18.045Z,24.6
2022-08-04T02:06:33.199Z,24.5
2022-08-04T02:09:33.189Z,24.5
2022-08-04T02:12:33.189Z,24.5
2022-08-04T02:15:33.188Z,24.5
2022-08-04T02:18:33.196Z,24.5
2022-08-04T02:21:42.140Z,24.5
2022-08-04T02:24:33.193Z,24.4
2022-08-04T02:27:59.489Z,24.4
2022-08-04T02:30:33.182Z,24.4
2022-08-04T02:33:33.181Z,24.3
2022-08-04T02:36:33.179Z,24.3
2022-08-04T02:39:33.235Z,24.2
2022-08-04T02:42:33.202Z,24.2
2022-08-04T02:45:33.197Z,24.2
2022-08-04T02:48:33.194Z,24.2
2022-08-04T02:51:33.192Z,24.1
2022-08-04T02:54:33.733Z,24.1
2022-08-04T02:57:33.187Z,24.1
2022-08-04T03:00:33.199Z,24
2022-08-04T03:03:33.198Z,24
2022-08-04T03:06:33.195Z,24
2022-08-04T03:09:34.935Z,24
2022-08-04T03:12:33.192Z,24
2022-08-04T03:15:33.196Z,24
2022-08-04T03:18:33.194Z,24
2022-08-04T03:21:33.204Z,24
2022-08-04T03:24:33.198Z,24
2022-08-04T03:27:33.195Z,24
2022-08-04T03:30:33.193Z,24
2022-08-04T03:33:33.198Z,24
2022-08-04T03:36:33.196Z,24
2022-08-04T03:39:33.274Z,24
2022-08-04T03:42:33.199Z,24
2022-08-04T03:45:33.203Z,24
2022-08-04T03:48:33.201Z,23.9
2022-08-04T03:51:35.663Z,23.9
2022-08-04T03:54:33.201Z,23.9
2022-08-04T03:57:33.203Z,23.9
2022-08-04T04:00:33.201Z,23.9
2022-08-04T04:03:33.203Z,23.9
2022-08-04T04:06:33.198Z,23.8
2022-08-04T04:09:45.594Z,23.8
2022-08-04T04:12:33.199Z,23.8
2022-08-04T04:15:33.199Z,23.8
2022-08-04T04:18:33.203Z,23.8
2022-08-04T04:21:33.205Z,23.8
2022-08-04T04:24:33.683Z,23.8
2022-08-04T04:27:33.210Z,23.8
2022-08-04T04:30:33.200Z,23.8
2022-08-04T04:33:33.212Z,23.7
2022-08-04T04:36:33.205Z,23.7
2022-08-04T04:39:33.272Z,23.7
2022-08-04T04:42:33.212Z,23.7
2022-08-04T04:45:33.205Z,23.7
2022-08-04T04:48:33.284Z,23.8
2022-08-04T04:51:33.405Z,23.8
2022-08-04T04:54:33.224Z,23.8
2022-08-04T04:57:53.773Z,23.8
2022-08-04T05:00:33.210Z,23.8
2022-08-04T05:03:33.218Z,23.8
2022-08-04T05:06:33.215Z,23.8
2022-08-04T05:09:33.223Z,23.8
2022-08-04T05:12:45.065Z,23.8
2022-08-04T05:18:33.216Z,23.8
2022-08-04T05:21:33.215Z,23.8
2022-08-04T05:24:35.022Z,23.8
2022-08-04T05:27:35.954Z,23.8
2022-08-04T05:30:33.210Z,23.8
2022-08-04T05:33:33.209Z,23.8
2022-08-04T05:36:40.778Z,23.8
2022-08-04T05:39:34.537Z,23.9
2022-08-04T05:42:33.214Z,23.9
2022-08-04T05:48:33.215Z,23.9
2022-08-04T05:51:33.221Z,23.9
2022-08-04T05:54:33.229Z,23.9
2022-08-04T05:57:33.215Z,24
2022-08-04T06:00:40.986Z,24
2022-08-04T06:03:33.215Z,24.1
2022-08-04T06:06:33.216Z,24.1
2022-08-04T06:09:33.236Z,24.1
2022-08-04T06:12:33.218Z,24.1
2022-08-04T06:15:33.238Z,24.2
2022-08-04T06:19:57.910Z,24.2
2022-08-04T06:21:33.220Z,24.2
2022-08-04T06:24:33.266Z,24.2
2022-08-04T06:27:33.227Z,24.3
2022-08-04T06:30:33.220Z,24.4
2022-08-04T06:33:33.221Z,24.4
2022-08-04T06:39:33.284Z,24.5
2022-08-04T06:42:33.229Z,24.6
2022-08-04T06:45:33.231Z,24.7
2022-08-04T06:48:33.504Z,24.7
2022-08-04T06:51:37.193Z,24.8
2022-08-04T06:57:33.235Z,24.8
2022-08-04T07:00:33.230Z,24.9
2022-08-04T07:03:33.229Z,25
2022-08-04T07:06:33.230Z,25
2022-08-04T07:09:33.246Z,25
2022-08-04T07:12:33.226Z,25.1
2022-08-04T07:15:33.237Z,25.1
2022-08-04T07:18:33.225Z,25.2
2022-08-04T07:21:33.228Z,25.2
2022-08-04T07:24:33.245Z,25.3
2022-08-04T07:27:47.043Z,25.3
2022-08-04T07:30:33.237Z,25.4
2022-08-04T07:33:33.236Z,25.4
2022-08-04T07:36:39.594Z,25.4
2022-08-04T07:39:33.322Z,25.5
2022-08-04T07:42:33.237Z,25.5
2022-08-04T07:45:33.232Z,25.6
2022-08-04T07:48:33.240Z,25.7
2022-08-04T07:51:33.232Z,25.7
2022-08-04T07:54:33.225Z,25.8
2022-08-04T07:57:40.930Z,25.9
2022-08-04T08:00:33.236Z,25.9
2022-08-04T08:03:33.321Z,26
2022-08-04T08:06:34.830Z,26.1
2022-08-04T08:09:33.246Z,26.2
2022-08-04T08:12:34.900Z,26.3
2022-08-04T08:15:33.240Z,26.3
2022-08-04T08:18:33.237Z,26.4
2022-08-04T08:21:33.238Z,26.5
2022-08-04T08:24:33.250Z,26.6
2022-08-04T08:27:33.251Z,26.6
2022-08-04T08:30:33.248Z,26.7
2022-08-04T08:33:33.244Z,26.8
2022-08-04T08:36:33.245Z,26.9
2022-08-04T08:39:33.309Z,26.9
2022-08-04T08:42:33.245Z,27
2022-08-04T08:45:33.249Z,27
2022-08-04T08:48:33.257Z,27.1
2022-08-04T08:51:33.240Z,27.2
2022-08-04T08:54:33.259Z,27.4
2022-08-04T08:57:33.242Z,27.4
2022-08-04T09:00:33.244Z,27.4
2022-08-04T09:03:33.247Z,27.5
2022-08-04T09:06:33.247Z,27.6
2022-08-04T09:09:33.264Z,27.7
2022-08-04T09:12:33.250Z,27.8
2022-08-04T09:15:33.251Z,27.9
2022-08-04T09:18:33.246Z,28
2022-08-04T09:21:33.248Z,28.1
2022-08-04T09:24:35.000Z,28.2
2022-08-04T09:27:33.253Z,28.3
2022-08-04T09:30:33.255Z,28.4
2022-08-04T09:33:45.254Z,28.4
2022-08-04T09:36:33.255Z,28.5
2022-08-04T09:39:33.344Z,28.6
2022-08-04T09:42:33.255Z,28.7
2022-08-04T09:45:42.319Z,28.8
2022-08-04T09:48:33.252Z,28.8
2022-08-04T09:51:56.690Z,28.9
2022-08-04T09:54:33.268Z,29
2022-08-04T09:57:33.264Z,29.1
2022-08-04T10:00:41.230Z,29.2
2022-08-04T10:03:33.311Z,29.3
2022-08-04T10:06:33.267Z,29.4
2022-08-04T10:09:33.271Z,29.4
2022-08-04T10:12:33.262Z,29.6
2022-08-04T10:15:33.261Z,29.7
2022-08-04T10:18:33.267Z,29.7
2022-08-04T10:21:33.267Z,29.8
2022-08-04T10:24:33.286Z,30
2022-08-04T10:27:33.259Z,30
2022-08-04T10:33:33.268Z,30.2
2022-08-04T10:36:33.268Z,30.4
2022-08-04T10:39:42.610Z,30.4
2022-08-04T10:42:33.268Z,30.5
2022-08-04T10:45:33.274Z,30.7
2022-08-04T10:48:34.464Z,30.8
2022-08-04T10:51:57.202Z,30.9
2022-08-04T10:54:33.275Z,30.9
2022-08-04T10:57:33.270Z,31
2022-08-04T11:00:33.272Z,31.1
2022-08-04T11:03:33.268Z,31.2
2022-08-04T11:06:33.263Z,31.3
2022-08-04T11:09:33.281Z,31.3
2022-08-04T11:12:33.270Z,31.4
2022-08-04T11:15:33.272Z,31.4
2022-08-04T11:18:33.271Z,31.5
2022-08-04T11:21:33.270Z,31.6
2022-08-04T11:24:33.280Z,31.6
2022-08-04T11:27:33.271Z,31.7
2022-08-04T11:30:33.273Z,31.7
2022-08-04T11:33:33.361Z,31.8
2022-08-04T11:36:33.275Z,31.8
2022-08-04T11:39:33.881Z,31.9
2022-08-04T11:45:33.272Z,32.1
2022-08-04T11:48:33.281Z,32.2
2022-08-04T11:51:33.280Z,32.2
2022-08-04T11:54:33.555Z,32.3
2022-08-04T11:57:35.545Z,32.4
2022-08-04T12:00:33.272Z,32.4
2022-08-04T12:03:33.289Z,32.5
2022-08-04T12:06:33.276Z,32.6
2022-08-04T12:09:33.299Z,32.6
2022-08-04T12:12:33.283Z,32.6
2022-08-04T12:15:33.284Z,32.6
2022-08-04T12:18:33.272Z,32.7
2022-08-04T12:21:33.291Z,32.7
2022-08-04T12:24:33.287Z,32.9
2022-08-04T12:27:33.283Z,32.9
2022-08-04T12:30:56.396Z,33
2022-08-04T12:33:41.468Z,33
2022-08-04T12:36:33.293Z,33
2022-08-04T12:39:33.336Z,33.1
2022-08-04T12:42:33.291Z,33.1
2022-08-04T12:45:33.283Z,33.2
2022-08-04T12:48:33.291Z,33.2
2022-08-04T12:52:07.222Z,33.3
2022-08-04T12:54:33.288Z,33.3
2022-08-04T12:57:33.301Z,33.3
2022-08-04T13:00:38.154Z,33.3
2022-08-04T13:03:33.291Z,33.3
2022-08-04T13:06:33.294Z,33.4
2022-08-04T13:09:33.294Z,33.4
2022-08-04T13:12:33.344Z,33.4
2022-08-04T13:15:33.290Z,33.4
2022-08-04T13:18:33.291Z,33.4
2022-08-04T13:24:34.796Z,33.4
2022-08-04T13:27:42.823Z,33.4
2022-08-04T13:30:33.293Z,33.3
2022-08-04T13:33:33.298Z,33.3
2022-08-04T13:36:33.306Z,33.3
2022-08-04T13:39:33.368Z,33.3
2022-08-04T13:42:33.296Z,33.3
2022-08-04T13:45:33.923Z,33.2
2022-08-04T13:48:33.310Z,33.2
2022-08-04T13:51:57.103Z,33.2
2022-08-04T13:57:33.306Z,33.2
2022-08-04T14:00:33.297Z,33.2
2022-08-04T14:03:33.296Z,33.1
2022-08-04T14:06:33.303Z,33.1
2022-08-04T14:09:34.973Z,33.1
2022-08-04T14:12:37.957Z,33.1
2022-08-04T14:15:55.267Z,33.2
2022-08-04T14:18:33.312Z,33.3
2022-08-04T14:24:33.302Z,33.4
2022-08-04T14:27:33.310Z,33.5
2022-08-04T14:30:33.315Z,33.6
2022-08-04T14:33:59.745Z,33.6
2022-08-04T14:36:33.314Z,33.7
2022-08-04T14:39:33.358Z,33.7
2022-08-04T14:42:33.304Z,33.7
2022-08-04T14:45:33.297Z,33.8
2022-08-04T14:48:33.311Z,33.8
2022-08-04T14:51:36.579Z,33.8
2022-08-04T14:54:33.313Z,33.8
2022-08-04T14:57:33.308Z,33.9
2022-08-04T15:00:33.318Z,34
2022-08-04T15:03:33.322Z,34
2022-08-04T15:09:33.305Z,34.1
2022-08-04T15:12:33.311Z,34.1
2022-08-04T15:15:36.305Z,34.1
2022-08-04T15:18:33.313Z,34.1
2022-08-04T15:24:33.323Z,34
2022-08-04T15:27:33.333Z,34
2022-08-04T15:30:33.331Z,34
2022-08-04T15:33:34.008Z,34
2022-08-04T15:36:33.333Z,34
2022-08-04T15:39:33.381Z,34
2022-08-04T15:42:33.318Z,34
2022-08-04T15:46:02.728Z,33.9
2022-08-04T15:48:33.318Z,33.9
2022-08-04T15:51:33.338Z,33.9
2022-08-04T15:54:33.370Z,33.8
2022-08-04T15:57:33.314Z,33.8
2022-08-04T16:00:33.319Z,33.7
2022-08-04T16:03:57.762Z,33.7
2022-08-04T16:06:33.330Z,33.7
2022-08-04T16:09:44.926Z,33.6
2022-08-04T16:12:53.088Z,33.5
2022-08-04T16:15:33.320Z,33.5
2022-08-04T16:18:33.319Z,33.4
2022-08-04T16:21:33.323Z,33.4
2022-08-04T16:24:33.320Z,33.3
2022-08-04T16:27:33.320Z,33.3
2022-08-04T16:30:33.318Z,33.3
2022-08-04T16:33:43.573Z,33.3
2022-08-04T16:36:33.326Z,33.3
2022-08-04T16:39:49.848Z,33.3
2022-08-04T16:45:33.319Z,33.2
2022-08-04T16:48:33.320Z,33.2
2022-08-04T16:51:33.326Z,33.2
2022-08-04T16:54:33.322Z,33.1
2022-08-04T16:57:37.020Z,33.1
2022-08-04T17:00:33.326Z,33.1
2022-08-04T17:03:33.325Z,33.1
2022-08-04T17:06:33.325Z,33
2022-08-04T17:09:33.331Z,32.9
2022-08-04T17:12:33.325Z,32.9
2022-08-04T17:15:33.333Z,32.8
2022-08-04T17:18:33.322Z,32.8
2022-08-04T17:21:33.329Z,32.7
2022-08-04T17:24:33.345Z,32.6
2022-08-04T17:30:33.334Z,32.5
2022-08-04T17:33:54.504Z,32.4
2022-08-04T17:36:33.600Z,32.4
2022-08-04T17:39:34.911Z,32.3
2022-08-04T17:42:33.349Z,32.3
2022-08-04T17:45:51.579Z,32.2
2022-08-04T17:48:33.337Z,32.2
2022-08-04T17:52:02.694Z,32.1
2022-08-04T17:54:36.897Z,32.1
2022-08-04T17:57:33.333Z,32.1
2022-08-04T18:00:33.502Z,32
2022-08-04T18:03:33.337Z,32
2022-08-04T18:06:33.338Z,31.9
2022-08-04T18:09:57.524Z,31.9
2022-08-04T18:12:33.342Z,31.9
2022-08-04T18:15:40.814Z,31.9
2022-08-04T18:18:33.367Z,31.9
2022-08-04T18:21:33.340Z,31.9
2022-08-04T18:24:34.847Z,31.9
2022-08-04T18:30:53.491Z,31.9
2022-08-04T18:33:38.207Z,31.8
2022-08-04T18:36:37.129Z,31.8
2022-08-04T18:40:08.717Z,31.8
2022-08-04T18:45:34.221Z,31.7
2022-08-04T18:48:36.515Z,31.7
2022-08-04T18:51:33.348Z,31.6
2022-08-04T18:54:33.345Z,31.6
2022-08-04T18:57:59.919Z,31.5
2022-08-04T19:00:33.350Z,31.3
2022-08-04T19:03:33.525Z,31.2
2022-08-04T19:06:33.348Z,31.1
2022-08-04T19:09:45.102Z,31
2022-08-04T19:12:33.345Z,30.9
2022-08-04T19:15:34.320Z,30.8
2022-08-04T19:18:33.348Z,30.7
2022-08-04T19:21:59.129Z,30.6
2022-08-04T19:24:34.233Z,30.6
2022-08-04T19:27:38.609Z,30.5
2022-08-04T19:30:33.346Z,30.5
2022-08-04T19:33:55.623Z,30.4
2022-08-04T19:36:33.643Z,30.3
2022-08-04T19:39:35.897Z,30.3
2022-08-04T19:42:33.352Z,30.3
2022-08-04T19:45:41.804Z,30.2
2022-08-04T19:48:33.458Z,30.1
2022-08-04T19:51:33.363Z,30.1
2022-08-04T19:54:33.347Z,30
2022-08-04T19:57:35.199Z,30
2022-08-04T20:00:34.448Z,30
2022-08-04T20:04:07.872Z,30
2022-08-04T20:06:33.361Z,30
2022-08-04T20:09:34.274Z,30
2022-08-04T20:12:33.365Z,30
2022-08-04T20:15:33.358Z,30
2022-08-04T20:18:35.276Z,30
2022-08-04T20:21:36.942Z,30
2022-08-04T20:24:37.361Z,30
2022-08-04T20:27:38.470Z,30
2022-08-04T20:30:33.359Z,30
2022-08-04T20:33:33.379Z,30
2022-08-04T20:36:33.414Z,30
2022-08-04T20:39:33.420Z,30
2022-08-04T20:42:33.869Z,30
2022-08-04T20:48:33.680Z,30
2022-08-04T20:51:33.862Z,30
2022-08-04T20:54:33.371Z,29.9
2022-08-04T20:57:37.679Z,29.9
2022-08-04T21:00:33.366Z,29.9
2022-08-04T21:03:38.682Z,29.9
2022-08-04T21:06:33.375Z,29.9
2022-08-04T21:09:37.744Z,29.9
2022-08-04T21:12:33.387Z,29.8
2022-08-04T21:15:50.880Z,29.8
2022-08-04T21:18:33.383Z,29.8
2022-08-04T21:24:33.376Z,29.8
2022-08-04T21:27:35.840Z,29.7
2022-08-04T21:30:37.123Z,29.7
2022-08-04T21:33:50.317Z,29.7
2022-08-04T21:36:33.379Z,29.7
2022-08-04T21:39:33.436Z,29.7
2022-08-04T21:42:33.376Z,29.6
2022-08-04T21:45:36.106Z,29.6
2022-08-04T21:48:33.381Z,29.6
2022-08-04T21:51:57.693Z,29.5
2022-08-04T21:54:33.381Z,29.5
2022-08-04T21:57:33.391Z,29.5
2022-08-04T22:00:33.378Z,29.4
2022-08-04T22:03:52.079Z,29.4
2022-08-04T22:06:33.388Z,29.4
2022-08-04T22:09:37.854Z,29.4
2022-08-04T22:12:33.672Z,29.3
2022-08-04T22:16:03.336Z,29.3
2022-08-04T22:18:36.769Z,29.2
2022-08-04T22:21:33.384Z,29.2
2022-08-04T22:24:33.379Z,29.2
2022-08-04T22:27:33.386Z,29.2
2022-08-04T22:30:36.399Z,29.1
2022-08-04T22:33:54.145Z,29.1
2022-08-04T22:36:33.390Z,29
2022-08-04T22:39:33.426Z,29
2022-08-04T22:42:33.393Z,29
2022-08-04T22:45:44.477Z,28.9
2022-08-04T22:48:33.385Z,28.9
2022-08-04T22:51:33.388Z,28.9
2022-08-04T22:54:33.403Z,28.9
2022-08-04T22:57:43.176Z,28.8
2022-08-04T23:00:33.483Z,28.8
2022-08-04T23:03:36.365Z,28.8
2022-08-04T23:06:33.393Z,28.8
2022-08-04T23:09:49.750Z,28.8
2022-08-04T23:12:33.388Z,28.8
2022-08-04T23:15:34.014Z,28.8
2022-08-04T23:18:33.393Z,28.7
2022-08-04T23:21:40.526Z,28.7
2022-08-04T23:24:33.393Z,28.7
2022-08-04T23:27:33.717Z,28.7
2022-08-04T23:30:33.397Z,28.7
2022-08-04T23:33:49.551Z,28.6
2022-08-04T23:36:33.393Z,28.6
2022-08-04T23:39:42.430Z,28.5
2022-08-04T23:42:33.413Z,28.5
2022-08-04T23:45:52.309Z,28.5
2022-08-04T23:48:33.410Z,28.5
2022-08-04T23:51:33.404Z,28.5
2022-08-04T23:54:33.403Z,28.4
2022-08-04T23:58:02.452Z,28.4
